Iliysk North Airport

Jump to: basic info | weather | comments

Related pages: nearby airports | nearby navaids

Basic information (top)

Location: lon 43.998299, lat 77.139099, elev 2,343 ft / 714 m msl
Status: small_airport

Weather (top)

Current conditions for Almaty Airport 39nm (72km) S (rec'd 2014/09/18 11:00Z):

UAAA 181100Z 31006MPS 9999 BKN050CB BKN100 28/02 Q1012 R88/65D TEMPO 34016MPS TS

Airport forecast for Almaty Airport 39nm (72km) S (rec'd 2014/09/18 06:18Z):

TAF TAF UAAA 180500Z 1806/1906 33007MPS 9999 SCT050CB BKN100 TX25/1808Z TN10/1901Z 
      TEMPO 1806/1815 VRB15MPS TSRA SQ BKN050CB BKN100 
      TEMPO 1815/1903 VRB16MPS 3000 TSRA SQ BKN020CB BKN100 
      TEMPO 1903/1906 -SHRA BR SCT007 OVC010CB

Latest comments (top)

No comments yet for Iliysk North Airport

More... (top)

See also NOTAMs and nearby airports and navaids, or visit the Iliysk North Airport page at the main OurAirports website..